Time;durP1;ratioP1;P1;durP2;ratioP2;P2;SDS_P1;SDS_P2;PMS_P1;PMS_P2;Temp;Humidity;BMP_temperature;BMP_pressure;BME280_temperature;BME280_humidity;BME280_pressure;Samples;Min_cycle;Max_cycle;Signal;HPM_P1;HPM_P2
2023/05/03 00:01:08;;;;;;;11.60;4.90;;;2.10;99.90;;;;;;4966202;28;20043;-87
2023/05/03 00:03:36;;;;;;;11.43;4.30;;;2.30;99.90;;;;;;4967725;28;20047;-86
2023/05/03 00:06:10;;;;;;;13.73;4.20;;;2.50;99.90;;;;;;4962129;28;20514;-86
2023/05/03 00:08:36;;;;;;;10.02;3.45;;;2.20;99.90;;;;;;4959115;28;20043;-86
2023/05/03 00:11:01;;;;;;;9.70;3.43;;;2.20;99.90;;;;;;4980566;28;20046;-86
2023/05/03 00:13:27;;;;;;;13.30;4.10;;;2.20;99.90;;;;;;4962165;28;20487;-86
2023/05/03 00:15:52;;;;;;;10.47;4.20;;;2.20;99.90;;;;;;4976059;28;20043;-87
2023/05/03 00:18:18;;;;;;;11.70;4.20;;;3.60;99.90;;;;;;4958150;28;20050;-86
2023/05/03 00:20:46;;;;;;;12.33;4.33;;;2.10;99.90;;;;;;4974507;28;20043;-86
2023/05/03 00:23:13;;;;;;;10.17;3.90;;;2.00;99.90;;;;;;4975389;28;20050;-86
2023/05/03 00:25:39;;;;;;;10.50;3.90;;;2.00;99.90;;;;;;4974286;28;20062;-86
2023/05/03 00:28:04;;;;;;;12.57;3.97;;;2.00;99.90;;;;;;4957287;28;20167;-86
2023/05/03 00:30:30;;;;;;;12.40;3.70;;;2.00;99.90;;;;;;4957832;28;20069;-86
2023/05/03 00:32:56;;;;;;;10.10;3.40;;;1.90;99.90;;;;;;4958040;28;20059;-86
2023/05/03 00:35:21;;;;;;;9.27;3.40;;;1.90;99.90;;;;;;4974204;28;20035;-86
2023/05/03 00:37:47;;;;;;;9.83;3.87;;;2.30;99.90;;;;;;4975280;28;20039;-86
2023/05/03 00:40:17;;;;;;;9.60;3.63;;;1.90;99.90;;;;;;4957723;28;20081;-86
2023/05/03 00:42:43;;;;;;;10.70;3.50;;;1.80;99.90;;;;;;4957006;28;20398;-86
2023/05/03 00:45:18;;;;;;;11.00;3.50;;;1.80;99.90;;;;;;4974491;28;20042;-86
2023/05/03 00:47:52;;;;;;;10.00;3.70;;;1.80;99.90;;;;;;4958140;28;20058;-86
2023/05/03 00:50:18;;;;;;;10.30;3.30;;;1.90;99.90;;;;;;4956591;28;20566;-86
2023/05/03 00:52:44;;;;;;;9.30;3.30;;;3.10;99.90;;;;;;4974797;28;20203;-86
2023/05/03 00:55:10;;;;;;;11.07;3.87;;;1.80;99.90;;;;;;4957097;28;20043;-86
2023/05/03 00:57:36;;;;;;;11.23;3.70;;;1.80;99.90;;;;;;4956593;28;20153;-86
2023/05/03 01:00:02;;;;;;;8.27;3.23;;;1.80;99.90;;;;;;4957204;28;20101;-86
2023/05/03 01:02:28;;;;;;;9.73;3.30;;;1.70;99.90;;;;;;4973701;28;20043;-86
2023/05/03 01:05:01;;;;;;;10.83;3.20;;;1.70;99.90;;;;;;4957682;28;20487;-86
2023/05/03 01:08:06;;;;;;;8.60;2.93;;;1.70;99.90;;;;;;4957251;28;20043;-86
2023/05/03 01:10:37;;;;;;;9.90;3.17;;;1.70;99.90;;;;;;4956695;28;20487;-86
2023/05/03 01:13:15;;;;;;;10.93;3.00;;;2.70;99.90;;;;;;4974914;28;20042;-86
2023/05/03 01:16:09;;;;;;;10.90;3.70;;;1.60;99.90;;;;;;4956799;28;20403;-86
2023/05/03 01:18:39;;;;;;;10.30;3.10;;;1.70;99.90;;;;;;4909743;28;20054;-86
2023/05/03 01:21:05;;;;;;;9.67;3.10;;;1.60;99.90;;;;;;4951837;28;20051;-86
2023/05/03 01:24:02;;;;;;;9.40;3.00;;;1.60;99.90;;;;;;4956625;28;20054;-86
2023/05/03 01:26:28;;;;;;;9.10;3.20;;;1.60;99.90;;;;;;4956859;28;20050;-86
2023/05/03 01:28:54;;;;;;;8.97;2.97;;;1.60;99.90;;;;;;4974255;28;20174;-86
2023/05/03 01:31:52;;;;;;;8.30;2.97;;;1.90;99.90;;;;;;4984152;28;20027;-86
2023/05/03 01:34:32;;;;;;;9.80;3.00;;;2.60;99.90;;;;;;4981016;28;20043;-86
2023/05/03 01:37:00;;;;;;;8.90;3.20;;;1.50;99.90;;;;;;4959996;28;20042;-86
2023/05/03 01:39:32;;;;;;;10.00;3.40;;;1.50;99.90;;;;;;4961973;28;20043;-86
2023/05/03 01:42:00;;;;;;;9.77;3.40;;;1.50;99.90;;;;;;4974709;28;20039;-86
2023/05/03 01:44:28;;;;;;;9.10;3.10;;;1.50;99.90;;;;;;4960599;28;20051;-86
2023/05/03 01:46:53;;;;;;;9.97;3.33;;;1.40;99.90;;;;;;4937380;29;20082;-86
2023/05/03 01:49:19;;;;;;;11.07;3.33;;;1.40;99.90;;;;;;4954161;29;20415;-86
2023/05/03 01:51:44;;;;;;;8.87;2.83;;;1.40;99.90;;;;;;4953696;28;20047;-85
2023/05/03 01:54:22;;;;;;;8.23;2.97;;;1.50;99.90;;;;;;4956276;28;20057;-86
2023/05/03 01:56:47;;;;;;;9.03;2.97;;;1.40;99.90;;;;;;4973783;28;20042;-86
2023/05/03 01:59:13;;;;;;;8.93;3.20;;;1.30;99.90;;;;;;4973125;28;20046;-86
2023/05/03 02:01:39;;;;;;;8.50;3.00;;;1.40;99.90;;;;;;4956056;28;20081;-86
2023/05/03 02:04:06;;;;;;;9.30;3.10;;;1.40;99.90;;;;;;4972866;28;20134;-86
2023/05/03 02:06:32;;;;;;;10.87;3.17;;;1.40;99.90;;;;;;4954240;28;20043;-86
2023/05/03 02:08:58;;;;;;;7.83;3.00;;;1.40;99.90;;;;;;4955808;28;20046;-86
2023/05/03 02:11:24;;;;;;;16.07;3.60;;;1.40;99.90;;;;;;4973538;28;20538;-86
2023/05/03 02:13:50;;;;;;;10.47;3.30;;;1.40;99.90;;;;;;4955680;28;20051;-86
2023/05/03 02:16:17;;;;;;;10.50;3.30;;;1.30;99.90;;;;;;4955830;28;20444;-86
2023/05/03 02:18:43;;;;;;;9.10;3.20;;;1.30;99.90;;;;;;4973609;28;20550;-86
2023/05/03 02:21:09;;;;;;;9.47;3.37;;;1.40;99.90;;;;;;4955465;28;20070;-86
2023/05/03 02:23:37;;;;;;;8.70;3.30;;;1.30;99.90;;;;;;4956474;28;20046;-86
2023/05/03 02:26:02;;;;;;;10.07;3.50;;;1.30;99.90;;;;;;4956385;28;20138;-86
2023/05/03 02:28:37;;;;;;;8.50;3.37;;;1.30;99.90;;;;;;4955774;28;20126;-86
2023/05/03 02:31:05;;;;;;;13.53;3.87;;;1.20;99.90;;;;;;4955781;28;20066;-86
2023/05/03 02:33:30;;;;;;;8.17;2.93;;;1.10;99.90;;;;;;4955775;28;20050;-86
2023/05/03 02:35:59;;;;;;;8.90;3.50;;;1.20;99.90;;;;;;4972170;28;20399;-86
2023/05/03 02:38:25;;;;;;;8.10;2.90;;;1.10;99.90;;;;;;4956212;28;20137;-86
2023/05/03 02:40:50;;;;;;;9.47;3.43;;;1.10;99.90;;;;;;4973522;28;20129;-86
2023/05/03 02:43:16;;;;;;;9.00;3.10;;;1.10;99.90;;;;;;4972893;28;20101;-86
2023/05/03 02:45:43;;;;;;;9.67;3.20;;;2.40;99.90;;;;;;4955821;28;20105;-86
2023/05/03 02:48:09;;;;;;;9.60;3.43;;;1.00;99.90;;;;;;4972589;28;20046;-86
2023/05/03 02:50:35;;;;;;;8.63;3.10;;;1.00;99.90;;;;;;4956032;28;20121;-86
2023/05/03 02:53:01;;;;;;;10.47;3.67;;;1.00;99.90;;;;;;4955814;28;20130;-86
2023/05/03 02:55:26;;;;;;;10.23;3.60;;;1.00;99.90;;;;;;4973069;28;20046;-86
2023/05/03 02:57:52;;;;;;;11.43;3.43;;;1.00;99.90;;;;;;4973316;28;20043;-86
2023/05/03 03:00:18;;;;;;;9.07;3.30;;;2.10;99.90;;;;;;4976354;28;20042;-86
2023/05/03 03:02:53;;;;;;;14.07;3.60;;;1.00;99.90;;;;;;4956778;28;20086;-86
2023/05/03 03:05:19;;;;;;;13.53;4.13;;;1.30;99.90;;;;;;4964986;29;20051;-86
2023/05/03 03:07:45;;;;;;;9.70;3.53;;;0.90;99.90;;;;;;4925809;29;20098;-86
2023/05/03 03:10:11;;;;;;;11.67;3.40;;;0.90;99.90;;;;;;4926575;29;20043;-86
2023/05/03 03:12:40;;;;;;;9.60;3.40;;;0.80;99.90;;;;;;4946430;29;20059;-86
2023/05/03 03:15:06;;;;;;;8.90;3.50;;;0.80;99.90;;;;;;4936558;29;20055;-86
2023/05/03 03:17:32;;;;;;;8.90;3.70;;;0.80;99.90;;;;;;4936101;29;20063;-86
2023/05/03 03:19:58;;;;;;;9.77;3.60;;;0.80;99.90;;;;;;4919863;29;20058;-86
2023/05/03 03:22:26;;;;;;;9.43;3.63;;;1.60;99.90;;;;;;4936172;29;20055;-86
2023/05/03 03:24:52;;;;;;;11.83;3.43;;;0.70;99.90;;;;;;4919639;29;20142;-86
2023/05/03 03:27:24;;;;;;;9.83;3.60;;;0.80;99.90;;;;;;4935400;29;20235;-86
2023/05/03 03:29:50;;;;;;;10.37;3.47;;;-0.20;99.90;;;;;;4920161;29;20218;-86
2023/05/03 03:32:16;;;;;;;9.23;3.60;;;0.60;99.90;;;;;;4919378;29;20138;-86
2023/05/03 03:34:41;;;;;;;11.53;3.33;;;0.70;99.90;;;;;;4952102;29;20503;-87
2023/05/03 03:37:25;;;;;;;12.07;3.57;;;0.70;99.90;;;;;;4955202;29;20070;-86
2023/05/03 03:39:50;;;;;;;8.70;3.33;;;0.70;99.90;;;;;;4955931;29;20054;-86
2023/05/03 03:42:16;;;;;;;8.93;3.33;;;0.60;99.90;;;;;;4956282;29;20048;-86
2023/05/03 03:44:42;;;;;;;8.67;3.50;;;0.70;99.90;;;;;;4915899;29;20497;-86
2023/05/03 03:47:08;;;;;;;11.80;3.83;;;0.70;99.90;;;;;;4916242;29;20178;-86
2023/05/03 03:49:33;;;;;;;10.17;3.70;;;0.70;99.90;;;;;;4901100;29;20135;-86
2023/05/03 03:51:59;;;;;;;13.60;3.67;;;0.70;99.90;;;;;;4899226;29;20513;-86
2023/05/03 03:54:24;;;;;;;9.87;4.17;;;0.70;99.90;;;;;;4916532;29;20056;-86
2023/05/03 03:56:51;;;;;;;11.43;3.80;;;0.70;99.90;;;;;;4916247;29;20048;-86
2023/05/03 03:59:17;;;;;;;10.83;3.73;;;0.70;99.90;;;;;;4915426;29;20457;-86
2023/05/03 04:01:42;;;;;;;12.73;3.87;;;0.70;99.90;;;;;;4913575;29;20055;-85
2023/05/03 04:04:09;;;;;;;10.53;3.87;;;0.70;99.90;;;;;;4929759;29;20540;-86
2023/05/03 04:06:34;;;;;;;9.47;3.90;;;0.70;99.90;;;;;;4917272;29;20147;-86
2023/05/03 04:09:00;;;;;;;9.03;3.60;;;0.70;99.90;;;;;;4934323;29;20503;-86
2023/05/03 04:11:26;;;;;;;10.53;3.90;;;0.80;99.90;;;;;;4933991;29;20051;-86
2023/05/03 04:13:51;;;;;;;12.13;4.27;;;0.80;99.90;;;;;;4918399;29;20048;-86
2023/05/03 04:16:17;;;;;;;10.67;4.40;;;0.90;99.90;;;;;;4952825;28;20162;-86
2023/05/03 04:18:43;;;;;;;12.37;3.90;;;0.90;99.90;;;;;;4975791;28;20051;-85
2023/05/03 04:21:11;;;;;;;12.00;4.10;;;1.00;99.90;;;;;;4956928;28;20134;-86
2023/05/03 04:23:38;;;;;;;10.40;4.70;;;1.90;99.90;;;;;;4975602;28;20093;-86
2023/05/03 04:26:03;;;;;;;13.27;3.90;;;1.90;99.90;;;;;;4957980;28;20126;-86
2023/05/03 04:28:29;;;;;;;10.33;4.37;;;1.20;99.90;;;;;;4974845;28;20049;-86
2023/05/03 04:31:14;;;;;;;9.40;3.90;;;2.10;99.90;;;;;;4977199;28;20043;-86
2023/05/03 04:33:40;;;;;;;11.53;4.30;;;1.30;99.90;;;;;;4965894;28;20070;-86
2023/05/03 04:36:09;;;;;;;11.27;4.40;;;1.40;99.90;;;;;;4982566;28;20101;-86
2023/05/03 04:38:47;;;;;;;10.70;4.47;;;2.00;99.90;;;;;;4970350;28;20057;-86
2023/05/03 04:41:13;;;;;;;11.37;3.90;;;2.10;99.90;;;;;;4976073;28;20027;-86
2023/05/03 04:43:39;;;;;;;11.90;4.20;;;3.00;99.90;;;;;;4991088;28;20045;-86
2023/05/03 04:46:04;;;;;;;10.27;4.77;;;1.80;99.90;;;;;;4975313;28;20127;-86
2023/05/03 04:48:48;;;;;;;11.37;4.50;;;1.90;99.90;;;;;;4957454;28;20130;-86
2023/05/03 04:51:14;;;;;;;14.65;5.20;;;2.10;99.90;;;;;;4974716;28;20042;-86
2023/05/03 04:53:40;;;;;;;13.73;4.87;;;2.10;99.90;;;;;;4957675;28;20514;-86
2023/05/03 04:56:06;;;;;;;10.80;4.67;;;2.20;99.90;;;;;;4956560;28;20051;-86
2023/05/03 04:58:51;;;;;;;9.93;4.60;;;2.40;99.90;;;;;;4975233;28;20047;-86
2023/05/03 05:01:17;;;;;;;10.70;4.43;;;2.00;99.90;;;;;;4975358;28;20035;-86
2023/05/03 05:03:43;;;;;;;11.30;4.40;;;2.60;99.90;;;;;;4952798;28;20104;-86
2023/05/03 05:06:18;;;;;;;12.00;4.57;;;2.50;99.90;;;;;;4953570;29;20531;-86
2023/05/03 05:08:44;;;;;;;12.17;4.80;;;2.60;99.90;;;;;;4953339;29;20054;-86
2023/05/03 05:11:11;;;;;;;9.87;4.27;;;2.90;99.90;;;;;;4954753;29;20411;-86
2023/05/03 05:13:40;;;;;;;11.53;4.80;;;3.10;99.90;;;;;;4954122;29;20440;-86
2023/05/03 05:16:24;;;;;;;10.97;5.03;;;3.50;99.90;;;;;;4948615;29;20105;-86
2023/05/03 05:18:50;;;;;;;12.25;4.78;;;3.10;99.90;;;;;;4953893;29;20047;-86
2023/05/03 05:21:15;;;;;;;11.23;4.50;;;3.40;99.90;;;;;;4954454;28;20506;-86
2023/05/03 05:23:41;;;;;;;10.73;4.53;;;3.50;99.90;;;;;;4953386;29;20054;-86
2023/05/03 05:26:06;;;;;;;12.07;4.60;;;3.70;99.90;;;;;;4954182;29;20039;-86
2023/05/03 05:28:32;;;;;;;12.77;5.27;;;3.70;99.90;;;;;;4953714;29;20046;-86
2023/05/03 05:30:58;;;;;;;14.80;4.67;;;5.30;99.90;;;;;;4953922;29;20051;-86
2023/05/03 05:33:41;;;;;;;10.83;4.50;;;4.10;99.90;;;;;;4954988;29;20043;-86
2023/05/03 05:36:07;;;;;;;10.47;4.33;;;4.20;99.90;;;;;;4937636;29;20049;-86
2023/05/03 05:38:32;;;;;;;11.40;4.27;;;4.30;99.90;;;;;;4954077;28;20392;-86
2023/05/03 05:41:00;;;;;;;10.73;4.40;;;4.40;99.90;;;;;;4954773;28;20094;-86
2023/05/03 05:43:29;;;;;;;12.20;4.53;;;5.30;99.90;;;;;;4954838;29;20444;-86
2023/05/03 05:45:55;;;;;;;10.57;4.60;;;4.60;99.90;;;;;;4954286;29;20078;-87
2023/05/03 05:48:20;;;;;;;10.77;4.87;;;4.60;99.90;;;;;;4954926;29;20074;-86
2023/05/03 05:50:46;;;;;;;10.87;4.63;;;4.90;99.90;;;;;;4953807;29;20377;-86
2023/05/03 05:53:12;;;;;;;12.27;4.60;;;5.00;99.90;;;;;;4954041;29;20057;-87
2023/05/03 05:56:54;;;;;;;12.27;4.57;;;5.00;99.90;;;;;;4952262;29;20090;-86
2023/05/03 05:59:19;;;;;;;13.47;4.60;;;4.60;99.90;;;;;;4951652;29;20055;-87
2023/05/03 06:01:45;;;;;;;13.67;4.37;;;6.90;99.90;;;;;;4952948;28;20054;-87
2023/05/03 06:04:42;;;;;;;13.70;4.25;;;5.40;99.90;;;;;;5055055;23;20077;-88
2023/05/03 06:07:08;;;;;;;10.65;4.28;;;5.60;99.90;;;;;;4976236;28;20171;-89
2023/05/03 06:09:33;;;;;;;9.10;3.80;;;7.00;99.90;;;;;;4992224;28;20160;-85
2023/05/03 06:12:00;;;;;;;9.33;3.70;;;5.90;99.90;;;;;;4998646;28;20042;-86
2023/05/03 06:14:43;;;;;;;11.10;3.70;;;6.00;99.90;;;;;;4981059;28;20502;-85
2023/05/03 06:17:09;;;;;;;10.18;3.83;;;6.50;99.90;;;;;;5004610;28;20046;-85
2023/05/03 06:19:51;;;;;;;9.93;3.70;;;6.90;99.90;;;;;;4975974;28;20552;-85
2023/05/03 06:22:17;;;;;;;9.20;3.80;;;6.70;99.90;;;;;;4975868;28;20038;-85
2023/05/03 06:24:42;;;;;;;11.70;4.03;;;7.60;99.90;;;;;;4975780;28;20054;-83
2023/05/03 06:27:17;;;;;;;8.90;3.65;;;7.30;99.90;;;;;;4974385;28;20368;-82
2023/05/03 06:29:43;;;;;;;8.98;3.80;;;7.30;99.90;;;;;;4974037;28;20097;-82
2023/05/03 06:32:15;;;;;;;11.00;4.10;;;6.70;99.90;;;;;;4955629;28;20137;-82
2023/05/03 06:34:44;;;;;;;11.35;3.70;;;7.60;99.90;;;;;;4975826;28;20054;-83
2023/05/03 06:37:10;;;;;;;10.75;4.30;;;6.80;99.90;;;;;;4977317;28;20050;-82
2023/05/03 06:39:54;;;;;;;8.57;3.70;;;8.00;99.90;;;;;;4977580;28;20043;-82
2023/05/03 06:42:32;;;;;;;10.90;4.10;;;7.20;99.90;;;;;;4976937;28;20047;-82
2023/05/03 06:44:57;;;;;;;10.88;3.83;;;8.30;99.90;;;;;;4959839;28;20046;-83
2023/05/03 06:47:49;;;;;;;12.52;4.10;;;8.10;99.90;;;;;;4959046;28;20233;-83
2023/05/03 06:50:14;;;;;;;10.48;4.32;;;7.70;99.90;;;;;;4977226;28;20503;-84
2023/05/03 06:52:45;;;;;;;10.75;4.00;;;7.80;99.90;;;;;;4981925;28;20125;-82
2023/05/03 06:55:11;;;;;;;9.73;3.80;;;8.40;99.90;;;;;;4993455;28;20039;-83
2023/05/03 06:57:52;;;;;;;8.55;3.53;;;9.40;99.90;;;;;;4978970;28;20047;-83
2023/05/03 07:00:33;;;;;;;9.38;4.07;;;9.10;99.90;;;;;;4979194;28;20050;-83
2023/05/03 07:02:59;;;;;;;11.93;3.78;;;7.30;99.90;;;;;;4995938;28;20074;-82
2023/05/03 07:05:25;;;;;;;9.27;3.92;;;8.00;99.90;;;;;;4996024;28;20089;-82
2023/05/03 07:07:50;;;;;;;12.07;3.90;;;8.20;99.90;;;;;;4996794;28;20101;-83
2023/05/03 07:10:22;;;;;;;10.63;3.80;;;9.10;99.90;;;;;;4977496;28;20507;-84
2023/05/03 07:12:47;;;;;;;9.75;3.90;;;8.40;99.90;;;;;;4996203;28;20046;-86
2023/05/03 07:15:16;;;;;;;9.60;3.78;;;10.20;99.90;;;;;;4984739;23;20499;-86
2023/05/03 07:17:52;;;;;;;9.55;3.80;;;8.60;99.90;;;;;;4979321;28;20133;-88
2023/05/03 07:20:17;;;;;;;7.53;3.13;;;8.40;99.90;;;;;;4996135;28;20038;-83
2023/05/03 07:23:05;;;;;;;10.13;3.72;;;8.50;99.90;;;;;;4993770;28;20034;-83
2023/05/03 07:25:31;;;;;;;9.43;2.85;;;10.30;99.90;;;;;;4973487;28;20275;-83
2023/05/03 07:28:04;;;;;;;7.47;2.55;;;10.50;99.90;;;;;;4995347;28;20050;-84
2023/05/03 07:30:30;;;;;;;7.25;2.60;;;9.00;99.90;;;;;;4971523;28;20062;-83
2023/05/03 07:33:14;;;;;;;8.57;2.58;;;10.30;99.90;;;;;;4983661;28;20078;-83
2023/05/03 07:35:39;;;;;;;5.82;2.20;;;9.40;99.90;;;;;;4992758;28;20046;-84
2023/05/03 07:38:26;;;;;;;5.32;2.00;;;9.50;99.90;;;;;;4980978;28;20054;-84
2023/05/03 07:40:51;;;;;;;7.45;2.20;;;10.60;99.90;;;;;;4976659;28;20044;-83
2023/05/03 07:43:32;;;;;;;6.22;2.30;;;10.60;99.90;;;;;;4978699;28;20102;-84
2023/05/03 07:45:58;;;;;;;7.57;2.50;;;9.10;99.90;;;;;;4959034;28;20046;-83
2023/05/03 07:48:24;;;;;;;9.52;2.60;;;10.90;99.90;;;;;;4983232;28;20098;-84
2023/05/03 07:50:49;;;;;;;5.97;2.22;;;9.70;99.90;;;;;;4977168;28;20042;-82
2023/05/03 07:53:30;;;;;;;7.18;2.30;;;10.40;99.90;;;;;;4977556;28;20046;-82
2023/05/03 07:55:56;;;;;;;7.93;2.50;;;10.80;99.90;;;;;;4995157;28;20046;-83
2023/05/03 07:58:22;;;;;;;8.52;2.33;;;10.70;99.90;;;;;;4994678;28;20479;-83
2023/05/03 08:01:04;;;;;;;8.60;2.60;;;10.70;99.90;;;;;;4977057;28;20388;-83
2023/05/03 08:03:39;;;;;;;8.38;2.60;;;10.00;99.90;;;;;;4977487;28;20054;-83
2023/05/03 08:06:05;;;;;;;6.20;2.33;;;10.90;99.90;;;;;;4994292;28;20079;-83
2023/05/03 08:08:32;;;;;;;7.72;2.60;;;9.70;99.90;;;;;;4977547;28;20391;-83
2023/05/03 08:14:11;;;;;;;7.28;2.47;;;9.20;99.90;;;;;;4973451;28;20055;-83
2023/05/03 08:16:37;;;;;;;7.93;2.47;;;10.30;99.90;;;;;;4975499;28;20046;-83
2023/05/03 08:19:03;;;;;;;7.00;2.40;;;10.00;99.90;;;;;;4972853;28;20039;-83
2023/05/03 08:21:29;;;;;;;8.93;2.70;;;11.00;99.90;;;;;;4974163;28;20046;-83
2023/05/03 08:23:55;;;;;;;8.77;2.80;;;10.40;99.90;;;;;;4973660;28;20046;-83
2023/05/03 08:26:23;;;;;;;8.85;2.58;;;11.20;99.90;;;;;;4973563;28;20054;-83
2023/05/03 08:28:51;;;;;;;8.77;2.60;;;10.90;99.90;;;;;;4974318;28;20038;-83
2023/05/03 08:31:17;;;;;;;9.40;2.70;;;11.20;99.90;;;;;;4973618;28;20058;-82
2023/05/03 08:33:43;;;;;;;9.13;2.55;;;10.40;99.90;;;;;;4973259;28;20047;-83
2023/05/03 08:36:09;;;;;;;8.57;2.67;;;11.50;99.90;;;;;;4974667;28;20046;-83
2023/05/03 08:38:39;;;;;;;8.63;2.60;;;10.30;99.90;;;;;;4973834;28;20043;-83
2023/05/03 08:41:20;;;;;;;8.63;2.90;;;11.10;99.90;;;;;;4974399;28;20054;-81
2023/05/03 08:43:51;;;;;;;9.38;2.60;;;10.30;99.90;;;;;;4973791;28;20093;-81
2023/05/03 08:46:17;;;;;;;10.35;2.80;;;10.30;99.90;;;;;;4955230;28;20050;-82
2023/05/03 08:48:47;;;;;;;7.72;3.00;;;10.30;99.90;;;;;;4954832;28;20101;-81
2023/05/03 08:51:13;;;;;;;7.85;2.80;;;10.30;99.90;;;;;;4973905;28;20043;-81
2023/05/03 08:53:38;;;;;;;8.07;2.80;;;10.20;99.90;;;;;;4973255;28;20458;-81
2023/05/03 08:56:09;;;;;;;8.35;2.85;;;11.20;99.90;;;;;;4973829;28;20133;-81
2023/05/03 08:58:36;;;;;;;7.97;2.72;;;10.40;99.90;;;;;;4974428;28;20058;-81
2023/05/03 09:01:06;;;;;;;9.88;2.85;;;10.60;99.90;;;;;;4972026;28;20054;-81
2023/05/03 09:03:33;;;;;;;7.25;2.80;;;11.30;99.90;;;;;;4975055;28;20062;-81
2023/05/03 09:06:00;;;;;;;8.00;2.80;;;11.00;99.90;;;;;;4975188;28;20423;-81
2023/05/03 09:08:27;;;;;;;8.98;3.10;;;10.90;99.90;;;;;;4976971;28;20392;-80
2023/05/03 09:10:53;;;;;;;8.80;2.80;;;10.90;99.90;;;;;;4974419;28;20056;-81
2023/05/03 09:13:19;;;;;;;7.25;2.70;;;10.80;99.90;;;;;;4976066;28;20039;-81
2023/05/03 09:15:55;;;;;;;9.93;3.55;;;10.80;99.90;;;;;;4977576;28;20046;-82
2023/05/03 09:18:22;;;;;;;8.80;2.80;;;11.10;99.90;;;;;;4974894;28;20068;-81
2023/05/03 09:20:52;;;;;;;8.45;2.70;;;11.30;99.90;;;;;;4973073;28;20050;-81
2023/05/03 09:23:38;;;;;;;9.88;2.90;;;11.80;99.90;;;;;;4972282;28;20043;-81
2023/05/03 09:26:05;;;;;;;6.90;2.60;;;12.20;99.90;;;;;;4973516;28;20062;-82
2023/05/03 09:28:40;;;;;;;9.40;2.97;;;12.80;99.90;;;;;;4972713;28;20047;-82
2023/05/03 09:31:06;;;;;;;10.13;2.80;;;12.80;99.90;;;;;;4971585;28;20054;-82
2023/05/03 09:33:32;;;;;;;7.53;2.50;;;13.50;99.90;;;;;;4974431;28;20062;-81
2023/05/03 09:36:00;;;;;;;9.18;2.63;;;13.50;99.90;;;;;;4971826;28;20088;-81
2023/05/03 09:38:31;;;;;;;9.07;2.90;;;12.50;99.90;;;;;;4974057;28;20128;-83
2023/05/03 09:40:56;;;;;;;7.70;2.70;;;12.70;99.90;;;;;;4962966;28;20059;-83
2023/05/03 09:43:25;;;;;;;9.40;2.95;;;12.80;99.90;;;;;;4953766;28;20494;-82
2023/05/03 09:45:50;;;;;;;6.65;2.50;;;12.70;99.90;;;;;;4954196;28;20058;-82
2023/05/03 09:48:17;;;;;;;7.40;2.65;;;12.40;99.90;;;;;;4952177;29;20039;-82
2023/05/03 09:50:43;;;;;;;9.05;2.95;;;12.10;99.90;;;;;;4953779;28;20054;-82
2023/05/03 09:53:09;;;;;;;8.00;2.85;;;12.20;99.90;;;;;;4953860;29;20216;-82
2023/05/03 09:55:36;;;;;;;10.45;2.95;;;12.40;99.90;;;;;;4954575;28;20043;-82
2023/05/03 09:58:06;;;;;;;7.78;2.78;;;13.50;99.90;;;;;;4953594;29;20039;-83
2023/05/03 10:00:37;;;;;;;8.52;2.85;;;13.10;99.90;;;;;;4951152;28;20051;-83
2023/05/03 10:03:07;;;;;;;7.60;3.00;;;13.10;99.90;;;;;;4942083;29;20051;-83
2023/05/03 10:05:39;;;;;;;7.43;2.63;;;13.30;99.90;;;;;;4947526;28;20500;-83
2023/05/03 10:08:06;;;;;;;7.78;2.70;;;13.30;99.90;;;;;;4949244;28;20043;-83
2023/05/03 10:10:33;;;;;;;8.70;2.70;;;13.10;99.90;;;;;;4954214;28;20044;-83
2023/05/03 10:13:01;;;;;;;8.38;2.90;;;13.20;99.90;;;;;;4938838;29;20054;-83
2023/05/03 10:15:28;;;;;;;9.25;2.90;;;12.40;99.90;;;;;;4956160;28;20044;-82
2023/05/03 10:17:56;;;;;;;7.90;2.90;;;13.10;99.90;;;;;;4960668;28;20057;-83
2023/05/03 10:21:02;;;;;;;10.73;3.35;;;11.90;99.90;;;;;;4959956;28;20670;-82
2023/05/03 10:23:28;;;;;;;8.80;2.70;;;11.90;99.90;;;;;;4958212;28;20043;-82
2023/05/03 10:26:08;;;;;;;7.25;3.08;;;11.80;99.90;;;;;;4958566;28;20403;-83
2023/05/03 10:28:34;;;;;;;10.07;2.90;;;12.20;99.90;;;;;;4951310;28;20043;-84
2023/05/03 10:31:00;;;;;;;9.23;2.92;;;11.50;99.90;;;;;;4950241;28;20046;-82
2023/05/03 10:33:35;;;;;;;7.72;2.95;;;11.40;99.90;;;;;;4959193;28;20433;-83
2023/05/03 10:36:06;;;;;;;8.68;3.08;;;11.80;99.90;;;;;;4959104;28;20503;-82
2023/05/03 10:38:32;;;;;;;7.47;3.00;;;12.30;99.90;;;;;;4962901;28;20043;-81
2023/05/03 10:41:00;;;;;;;7.75;3.10;;;12.80;99.90;;;;;;4959208;28;20542;-82
2023/05/03 10:43:30;;;;;;;8.98;3.17;;;13.40;99.90;;;;;;4960521;28;20439;-82
2023/05/03 10:46:04;;;;;;;8.55;3.17;;;13.80;99.90;;;;;;4965907;29;20098;-82
2023/05/03 10:48:34;;;;;;;10.30;3.00;;;15.00;99.30;;;;;;4959235;28;20067;-82
2023/05/03 10:51:27;;;;;;;7.10;3.00;;;14.40;99.90;;;;;;4958994;28;20051;-82
2023/05/03 10:53:53;;;;;;;8.45;3.13;;;14.40;97.20;;;;;;4958145;29;20065;-82
2023/05/03 10:56:19;;;;;;;8.70;3.30;;;15.00;99.90;;;;;;4958924;28;20055;-82
2023/05/03 10:58:54;;;;;;;7.85;3.00;;;15.20;99.90;;;;;;4958866;29;20078;-82
2023/05/03 11:01:22;;;;;;;8.43;3.00;;;14.70;99.30;;;;;;4948749;28;20051;-81
2023/05/03 11:04:25;;;;;;;8.18;3.10;;;15.40;98.80;;;;;;4947998;29;20122;-81
2023/05/03 11:06:55;;;;;;;7.50;2.97;;;14.50;99.00;;;;;;4949084;29;20055;-82
2023/05/03 11:09:30;;;;;;;10.45;3.25;;;14.50;98.90;;;;;;4951686;28;20090;-82
2023/05/03 11:11:56;;;;;;;8.57;3.03;;;14.70;98.50;;;;;;4957725;29;20042;-82
2023/05/03 11:14:22;;;;;;;8.13;2.92;;;14.70;98.50;;;;;;4965512;28;20050;-82
2023/05/03 11:16:49;;;;;;;9.02;3.35;;;15.00;98.60;;;;;;4978527;28;20055;-82
2023/05/03 11:19:16;;;;;;;9.43;3.30;;;14.40;95.40;;;;;;4978977;28;20117;-80
2023/05/03 11:21:42;;;;;;;8.05;3.55;;;14.50;97.90;;;;;;4974644;28;20047;-83
2023/05/03 11:24:09;;;;;;;7.22;3.03;;;14.70;98.50;;;;;;4976091;28;20046;-82
2023/05/03 11:26:38;;;;;;;8.75;3.20;;;15.50;98.50;;;;;;4975435;28;20046;-82
2023/05/03 11:29:04;;;;;;;9.40;3.28;;;14.70;98.10;;;;;;4959470;28;20047;-82
2023/05/03 11:31:31;;;;;;;8.15;3.65;;;14.70;98.20;;;;;;4955522;29;20047;-82
2023/05/03 11:33:57;;;;;;;8.18;3.33;;;14.90;98.40;;;;;;4955474;28;20740;-82
2023/05/03 11:36:25;;;;;;;7.70;3.55;;;15.60;98.60;;;;;;4954760;29;20049;-82
2023/05/03 11:38:50;;;;;;;8.30;3.30;;;15.20;98.50;;;;;;4954958;29;20051;-82
2023/05/03 11:41:17;;;;;;;8.95;3.40;;;15.30;98.60;;;;;;4955551;28;20126;-82
2023/05/03 11:43:44;;;;;;;8.68;3.40;;;15.50;98.30;;;;;;4952253;29;20035;-82
2023/05/03 11:46:10;;;;;;;8.30;3.30;;;15.60;97.50;;;;;;4953800;29;20047;-82
2023/05/03 11:48:37;;;;;;;10.73;3.75;;;16.50;97.30;;;;;;4955399;29;20078;-82
2023/05/03 11:51:08;;;;;;;8.65;3.40;;;15.40;96.40;;;;;;4952802;29;20488;-82
2023/05/03 11:53:37;;;;;;;9.30;3.50;;;15.30;96.60;;;;;;4956300;28;20127;-82
2023/05/03 11:56:17;;;;;;;8.27;3.20;;;15.60;97.00;;;;;;4954869;28;20551;-81
2023/05/03 11:58:55;;;;;;;9.45;3.50;;;16.10;97.40;;;;;;5029086;23;20041;-82
2023/05/03 12:01:22;;;;;;;8.93;3.45;;;15.40;96.60;;;;;;4988201;28;20470;-81
2023/05/03 12:03:56;;;;;;;9.60;3.50;;;15.40;97.10;;;;;;5004235;28;20041;-81
2023/05/03 12:06:22;;;;;;;;;;;15.70;96.90;;;;;;5012959;28;20041;-80
2023/05/03 12:08:48;;;;;;;8.30;3.53;;;15.90;96.30;;;;;;4988409;28;19974;-80
2023/05/03 12:11:13;;;;;;;9.43;3.53;;;16.10;97.50;;;;;;4984141;28;20054;-80
2023/05/03 12:13:40;;;;;;;9.15;3.95;;;16.90;97.40;;;;;;5017186;28;20070;-80
2023/05/03 12:16:17;;;;;;;9.30;3.70;;;16.30;97.00;;;;;;5016690;28;20486;-80
2023/05/03 12:18:51;;;;;;;9.13;3.78;;;16.40;96.70;;;;;;4991237;28;20042;-81
2023/05/03 12:21:18;;;;;;;9.38;3.63;;;16.40;96.20;;;;;;4994798;28;20042;-81
2023/05/03 12:23:45;;;;;;;11.23;4.10;;;16.30;96.30;;;;;;4985036;28;20077;-81
2023/05/03 12:26:11;;;;;;;8.73;3.70;;;16.20;95.90;;;;;;5010523;28;20041;-82
2023/05/03 12:28:37;;;;;;;10.48;3.60;;;16.20;96.40;;;;;;5012563;28;20046;-82
2023/05/03 12:31:03;;;;;;;7.85;3.50;;;16.40;96.60;;;;;;4991670;28;20045;-82
2023/05/03 12:33:29;;;;;;;10.40;3.78;;;16.70;96.70;;;;;;4994701;28;20045;-82
2023/05/03 12:35:55;;;;;;;8.25;3.75;;;16.90;96.60;;;;;;4996053;28;20133;-80
2023/05/03 12:38:22;;;;;;;9.05;3.47;;;17.60;96.60;;;;;;4995666;28;20129;-80
2023/05/03 12:40:47;;;;;;;8.13;3.33;;;16.80;96.50;;;;;;4978463;28;20045;-80
2023/05/03 12:43:13;;;;;;;10.07;3.97;;;16.90;96.20;;;;;;4995788;28;20042;-80
2023/05/03 12:45:39;;;;;;;9.27;3.78;;;16.90;95.80;;;;;;4996130;28;20061;-82
2023/05/03 12:48:05;;;;;;;8.35;3.50;;;16.50;95.90;;;;;;5012822;28;20490;-82
2023/05/03 12:50:31;;;;;;;8.73;3.70;;;16.70;95.90;;;;;;5013862;28;20053;-80
2023/05/03 12:52:57;;;;;;;9.23;3.65;;;16.80;95.80;;;;;;4995391;28;20104;-80
2023/05/03 12:55:37;;;;;;;8.50;3.88;;;16.80;95.20;;;;;;5000391;23;20049;-82
2023/05/03 12:58:29;;;;;;;8.98;3.65;;;16.60;95.20;;;;;;4976180;28;20054;-82
2023/05/03 13:00:55;;;;;;;11.30;4.10;;;16.60;95.10;;;;;;4975733;28;20042;-83
2023/05/03 13:03:20;;;;;;;8.40;3.70;;;16.50;95.00;;;;;;4994017;28;20601;-82